sensor_id;sensor_type;location;lat;lon;timestamp;pressure;altitude;pressure_sealevel;temperature;humidity
60715;BME280;46564;53.096;8.246;2023-06-10T00:03:03;57128.34;;;-147.53;100.00
60715;BME280;46564;53.096;8.246;2023-06-10T00:08:08;57128.34;;;-147.53;100.00
60715;BME280;46564;53.096;8.246;2023-06-10T00:13:10;57128.34;;;-147.53;100.00
60715;BME280;46564;53.096;8.246;2023-06-10T00:18:12;57128.34;;;-147.53;100.00
60715;BME280;46564;53.096;8.246;2023-06-10T00:23:14;57128.34;;;-147.53;100.00
60715;BME280;46564;53.096;8.246;2023-06-10T00:28:16;57128.34;;;-147.53;100.00
60715;BME280;46564;53.096;8.246;2023-06-10T00:33:18;57128.34;;;-147.53;100.00
60715;BME280;46564;53.096;8.246;2023-06-10T00:38:20;57128.34;;;-147.53;100.00
60715;BME280;46564;53.096;8.246;2023-06-10T00:43:22;57128.34;;;-147.53;100.00
60715;BME280;46564;53.096;8.246;2023-06-10T00:48:24;57128.34;;;-147.53;100.00
60715;BME280;46564;53.096;8.246;2023-06-10T00:53:26;57128.34;;;-147.53;100.00
60715;BME280;46564;53.096;8.246;2023-06-10T00:58:29;57128.34;;;-147.53;100.00
60715;BME280;46564;53.096;8.246;2023-06-10T01:03:31;57128.34;;;-147.53;100.00
60715;BME280;46564;53.096;8.246;2023-06-10T01:08:46;57128.34;;;-147.53;100.00
60715;BME280;46564;53.096;8.246;2023-06-10T01:13:51;57128.34;;;-147.53;100.00
60715;BME280;46564;53.096;8.246;2023-06-10T01:18:53;57128.34;;;-147.53;100.00
60715;BME280;46564;53.096;8.246;2023-06-10T01:23:56;57128.34;;;-147.53;100.00
60715;BME280;46564;53.096;8.246;2023-06-10T01:29:03;57128.34;;;-147.53;100.00
60715;BME280;46564;53.096;8.246;2023-06-10T01:34:10;57128.34;;;-147.53;100.00
60715;BME280;46564;53.096;8.246;2023-06-10T01:39:20;57128.34;;;-147.53;100.00
60715;BME280;46564;53.096;8.246;2023-06-10T01:44:23;57128.34;;;-147.53;100.00
60715;BME280;46564;53.096;8.246;2023-06-10T01:49:25;57128.34;;;-147.53;100.00
60715;BME280;46564;53.096;8.246;2023-06-10T01:54:27;57128.34;;;-147.53;100.00
60715;BME280;46564;53.096;8.246;2023-06-10T01:59:29;57128.34;;;-147.53;100.00
60715;BME280;46564;53.096;8.246;2023-06-10T02:04:31;57128.34;;;-147.53;100.00
60715;BME280;46564;53.096;8.246;2023-06-10T02:09:36;57128.34;;;-147.53;100.00
60715;BME280;46564;53.096;8.246;2023-06-10T02:14:38;57128.34;;;-147.53;100.00
60715;BME280;46564;53.096;8.246;2023-06-10T02:19:40;57128.34;;;-147.53;100.00
60715;BME280;46564;53.096;8.246;2023-06-10T02:24:43;57128.34;;;-147.53;100.00
60715;BME280;46564;53.096;8.246;2023-06-10T02:29:45;57128.34;;;-147.53;100.00
60715;BME280;46564;53.096;8.246;2023-06-10T02:34:47;57128.34;;;-147.53;100.00
60715;BME280;46564;53.096;8.246;2023-06-10T02:39:51;57128.34;;;-147.53;100.00
60715;BME280;46564;53.096;8.246;2023-06-10T02:44:53;57128.34;;;-147.53;100.00
60715;BME280;46564;53.096;8.246;2023-06-10T02:50:06;57128.34;;;-147.53;100.00
60715;BME280;46564;53.096;8.246;2023-06-10T02:55:14;57128.34;;;-147.53;100.00
60715;BME280;46564;53.096;8.246;2023-06-10T03:00:23;57128.34;;;-147.53;100.00
60715;BME280;46564;53.096;8.246;2023-06-10T03:05:26;57128.34;;;-147.53;100.00
60715;BME280;46564;53.096;8.246;2023-06-10T03:10:30;57128.34;;;-147.53;100.00
60715;BME280;46564;53.096;8.246;2023-06-10T03:15:35;57128.34;;;-147.53;100.00
60715;BME280;46564;53.096;8.246;2023-06-10T03:20:41;57128.34;;;-147.53;100.00
60715;BME280;46564;53.096;8.246;2023-06-10T03:25:45;57128.34;;;-147.53;100.00
60715;BME280;46564;53.096;8.246;2023-06-10T03:30:50;57128.34;;;-147.53;100.00
60715;BME280;46564;53.096;8.246;2023-06-10T03:35:57;57128.34;;;-147.53;100.00
60715;BME280;46564;53.096;8.246;2023-06-10T03:40:59;57128.34;;;-147.53;100.00
60715;BME280;46564;53.096;8.246;2023-06-10T03:46:02;57128.34;;;-147.53;100.00
60715;BME280;46564;53.096;8.246;2023-06-10T03:51:06;57128.34;;;-147.53;100.00
60715;BME280;46564;53.096;8.246;2023-06-10T03:56:07;57128.34;;;-147.53;100.00
60715;BME280;46564;53.096;8.246;2023-06-10T04:01:10;57128.34;;;-147.53;100.00
60715;BME280;46564;53.096;8.246;2023-06-10T04:06:12;57128.34;;;-147.53;100.00
60715;BME280;46564;53.096;8.246;2023-06-10T04:11:14;57128.34;;;-147.53;100.00
60715;BME280;46564;53.096;8.246;2023-06-10T04:16:16;57128.34;;;-147.53;100.00
60715;BME280;46564;53.096;8.246;2023-06-10T04:21:17;57128.34;;;-147.53;100.00
60715;BME280;46564;53.096;8.246;2023-06-10T04:26:23;57128.34;;;-147.53;100.00
60715;BME280;46564;53.096;8.246;2023-06-10T04:31:26;57128.34;;;-147.53;100.00
60715;BME280;46564;53.096;8.246;2023-06-10T04:36:28;57128.34;;;-147.53;100.00
60715;BME280;46564;53.096;8.246;2023-06-10T04:41:32;57128.34;;;-147.53;100.00
60715;BME280;46564;53.096;8.246;2023-06-10T04:46:34;57128.34;;;-147.53;100.00
60715;BME280;46564;53.096;8.246;2023-06-10T04:51:36;57128.34;;;-147.53;100.00
60715;BME280;46564;53.096;8.246;2023-06-10T04:56:39;57128.34;;;-147.53;100.00
60715;BME280;46564;53.096;8.246;2023-06-10T05:01:42;57128.34;;;-147.53;100.00
60715;BME280;46564;53.096;8.246;2023-06-10T05:06:43;57128.34;;;-147.53;100.00
60715;BME280;46564;53.096;8.246;2023-06-10T05:11:45;57128.34;;;-147.53;100.00
60715;BME280;46564;53.096;8.246;2023-06-10T05:16:48;57128.34;;;-147.53;100.00
60715;BME280;46564;53.096;8.246;2023-06-10T05:21:50;57128.34;;;-147.53;100.00
60715;BME280;46564;53.096;8.246;2023-06-10T05:26:52;57128.34;;;-147.53;100.00
60715;BME280;46564;53.096;8.246;2023-06-10T05:31:53;57128.34;;;-147.53;100.00
60715;BME280;46564;53.096;8.246;2023-06-10T05:36:58;57128.34;;;-147.53;100.00
60715;BME280;46564;53.096;8.246;2023-06-10T05:42:00;57128.34;;;-147.53;100.00
60715;BME280;46564;53.096;8.246;2023-06-10T05:47:03;57128.34;;;-147.53;100.00
60715;BME280;46564;53.096;8.246;2023-06-10T05:52:06;57128.34;;;-147.53;100.00
60715;BME280;46564;53.096;8.246;2023-06-10T05:57:08;57128.34;;;-147.53;100.00
60715;BME280;46564;53.096;8.246;2023-06-10T06:02:10;57128.34;;;-147.53;100.00
60715;BME280;46564;53.096;8.246;2023-06-10T06:07:12;57128.34;;;-147.53;100.00
60715;BME280;46564;53.096;8.246;2023-06-10T06:12:14;57128.34;;;-147.53;100.00
60715;BME280;46564;53.096;8.246;2023-06-10T06:17:16;57128.34;;;-147.53;100.00
60715;BME280;46564;53.096;8.246;2023-06-10T06:22:18;57128.34;;;-147.53;100.00
60715;BME280;46564;53.096;8.246;2023-06-10T06:27:22;57128.34;;;-147.53;100.00
60715;BME280;46564;53.096;8.246;2023-06-10T06:32:25;57128.34;;;-147.53;100.00
60715;BME280;46564;53.096;8.246;2023-06-10T06:37:28;57128.34;;;-147.53;100.00
60715;BME280;46564;53.096;8.246;2023-06-10T06:42:46;57128.34;;;-147.53;100.00
60715;BME280;46564;53.096;8.246;2023-06-10T06:47:57;57128.34;;;-147.53;100.00
60715;BME280;46564;53.096;8.246;2023-06-10T06:52:59;57128.34;;;-147.53;100.00
60715;BME280;46564;53.096;8.246;2023-06-10T06:58:00;57128.34;;;-147.53;100.00
60715;BME280;46564;53.096;8.246;2023-06-10T07:03:05;57128.34;;;-147.53;100.00
60715;BME280;46564;53.096;8.246;2023-06-10T07:08:07;57128.34;;;-147.53;100.00
60715;BME280;46564;53.096;8.246;2023-06-10T07:13:08;57128.34;;;-147.53;100.00
60715;BME280;46564;53.096;8.246;2023-06-10T07:18:11;57128.34;;;-147.53;100.00
60715;BME280;46564;53.096;8.246;2023-06-10T07:23:12;57128.34;;;-147.53;100.00
60715;BME280;46564;53.096;8.246;2023-06-10T07:28:14;57128.34;;;-147.53;100.00
60715;BME280;46564;53.096;8.246;2023-06-10T07:33:17;57128.34;;;-147.53;100.00
60715;BME280;46564;53.096;8.246;2023-06-10T07:38:19;57128.34;;;-147.53;100.00
60715;BME280;46564;53.096;8.246;2023-06-10T07:43:20;57128.34;;;-147.53;100.00
60715;BME280;46564;53.096;8.246;2023-06-10T07:48:22;57128.34;;;-147.53;100.00
60715;BME280;46564;53.096;8.246;2023-06-10T07:54:02;57128.34;;;-147.53;100.00
60715;BME280;46564;53.096;8.246;2023-06-10T07:59:30;57128.34;;;-147.53;100.00
60715;BME280;46564;53.096;8.246;2023-06-10T08:04:31;57128.34;;;-147.53;100.00
60715;BME280;46564;53.096;8.246;2023-06-10T08:09:33;57128.34;;;-147.53;100.00
60715;BME280;46564;53.096;8.246;2023-06-10T08:14:35;57128.34;;;-147.53;100.00
60715;BME280;46564;53.096;8.246;2023-06-10T08:19:38;57128.34;;;-147.53;100.00
60715;BME280;46564;53.096;8.246;2023-06-10T08:24:40;57128.34;;;-147.53;100.00
60715;BME280;46564;53.096;8.246;2023-06-10T08:29:41;57128.34;;;-147.53;100.00
60715;BME280;46564;53.096;8.246;2023-06-10T08:34:43;57128.34;;;-147.53;100.00
60715;BME280;46564;53.096;8.246;2023-06-10T08:39:44;57128.34;;;-147.53;100.00
60715;BME280;46564;53.096;8.246;2023-06-10T08:44:46;57128.34;;;-147.53;100.00
60715;BME280;46564;53.096;8.246;2023-06-10T08:49:50;57128.34;;;-147.53;100.00
60715;BME280;46564;53.096;8.246;2023-06-10T08:54:59;57128.34;;;-147.53;100.00
60715;BME280;46564;53.096;8.246;2023-06-10T09:00:01;57128.34;;;-147.53;100.00
60715;BME280;46564;53.096;8.246;2023-06-10T09:05:08;57128.34;;;-147.53;100.00
60715;BME280;46564;53.096;8.246;2023-06-10T09:10:11;57128.34;;;-147.53;100.00
60715;BME280;46564;53.096;8.246;2023-06-10T09:15:13;57128.34;;;-147.53;100.00
60715;BME280;46564;53.096;8.246;2023-06-10T09:20:16;57128.34;;;-147.53;100.00
60715;BME280;46564;53.096;8.246;2023-06-10T09:25:18;57128.34;;;-147.53;100.00
60715;BME280;46564;53.096;8.246;2023-06-10T09:30:28;57128.34;;;-147.53;100.00
60715;BME280;46564;53.096;8.246;2023-06-10T09:35:30;57128.34;;;-147.53;100.00
60715;BME280;46564;53.096;8.246;2023-06-10T09:40:32;57128.34;;;-147.53;100.00
60715;BME280;46564;53.096;8.246;2023-06-10T09:45:34;57128.34;;;-147.53;100.00
60715;BME280;46564;53.096;8.246;2023-06-10T09:50:42;57128.34;;;-147.53;100.00
60715;BME280;46564;53.096;8.246;2023-06-10T09:55:44;57128.34;;;-147.53;100.00
60715;BME280;46564;53.096;8.246;2023-06-10T10:00:52;57128.34;;;-147.53;100.00
60715;BME280;46564;53.096;8.246;2023-06-10T10:06:00;57128.34;;;-147.53;100.00
60715;BME280;46564;53.096;8.246;2023-06-10T10:11:03;57128.34;;;-147.53;100.00
60715;BME280;46564;53.096;8.246;2023-06-10T10:16:11;57128.34;;;-147.53;100.00
60715;BME280;46564;53.096;8.246;2023-06-10T10:21:15;57128.34;;;-147.53;100.00
60715;BME280;46564;53.096;8.246;2023-06-10T10:26:18;57128.34;;;-147.53;100.00
60715;BME280;46564;53.096;8.246;2023-06-10T10:31:21;57128.34;;;-147.53;100.00
60715;BME280;46564;53.096;8.246;2023-06-10T10:36:23;57128.34;;;-147.53;100.00
60715;BME280;46564;53.096;8.246;2023-06-10T10:41:26;57128.34;;;-147.53;100.00
60715;BME280;46564;53.096;8.246;2023-06-10T10:46:29;57128.34;;;-147.53;100.00
60715;BME280;46564;53.096;8.246;2023-06-10T10:51:34;57128.34;;;-147.53;100.00
60715;BME280;46564;53.096;8.246;2023-06-10T10:56:39;57128.34;;;-147.53;100.00
60715;BME280;46564;53.096;8.246;2023-06-10T11:01:42;57128.34;;;-147.53;100.00
60715;BME280;46564;53.096;8.246;2023-06-10T11:06:53;57128.34;;;-147.53;100.00
60715;BME280;46564;53.096;8.246;2023-06-10T11:11:59;57128.34;;;-147.53;100.00
60715;BME280;46564;53.096;8.246;2023-06-10T11:17:01;57128.34;;;-147.53;100.00
60715;BME280;46564;53.096;8.246;2023-06-10T11:22:07;57128.34;;;-147.53;100.00
60715;BME280;46564;53.096;8.246;2023-06-10T11:32:20;57128.34;;;-147.53;100.00
60715;BME280;46564;53.096;8.246;2023-06-10T11:37:22;57128.34;;;-147.53;100.00
60715;BME280;46564;53.096;8.246;2023-06-10T11:42:46;57128.34;;;-147.53;100.00
60715;BME280;46564;53.096;8.246;2023-06-10T11:48:00;57128.34;;;-147.53;100.00
60715;BME280;46564;53.096;8.246;2023-06-10T11:53:03;57128.34;;;-147.53;100.00
60715;BME280;46564;53.096;8.246;2023-06-10T11:58:04;57128.34;;;-147.53;100.00
60715;BME280;46564;53.096;8.246;2023-06-10T12:03:06;57128.34;;;-147.53;100.00
60715;BME280;46564;53.096;8.246;2023-06-10T12:08:09;57128.34;;;-147.53;100.00
60715;BME280;46564;53.096;8.246;2023-06-10T12:13:12;57128.34;;;-147.53;100.00
60715;BME280;46564;53.096;8.246;2023-06-10T12:18:17;57128.34;;;-147.53;100.00
60715;BME280;46564;53.096;8.246;2023-06-10T12:23:20;57128.34;;;-147.53;100.00
60715;BME280;46564;53.096;8.246;2023-06-10T12:28:23;57128.34;;;-147.53;100.00
60715;BME280;46564;53.096;8.246;2023-06-10T12:33:25;57128.34;;;-147.53;100.00
60715;BME280;46564;53.096;8.246;2023-06-10T12:38:28;57128.34;;;-147.53;100.00
60715;BME280;46564;53.096;8.246;2023-06-10T12:43:30;57128.34;;;-147.53;100.00
60715;BME280;46564;53.096;8.246;2023-06-10T12:48:32;57128.34;;;-147.53;100.00
60715;BME280;46564;53.096;8.246;2023-06-10T12:53:34;57128.34;;;-147.53;100.00
60715;BME280;46564;53.096;8.246;2023-06-10T12:58:35;57128.34;;;-147.53;100.00
60715;BME280;46564;53.096;8.246;2023-06-10T13:03:38;57128.34;;;-147.53;100.00
60715;BME280;46564;53.096;8.246;2023-06-10T13:08:40;57128.34;;;-147.53;100.00
60715;BME280;46564;53.096;8.246;2023-06-10T13:13:42;57128.34;;;-147.53;100.00
60715;BME280;46564;53.096;8.246;2023-06-10T13:18:44;57128.34;;;-147.53;100.00
60715;BME280;46564;53.096;8.246;2023-06-10T13:23:45;57128.34;;;-147.53;100.00
60715;BME280;46564;53.096;8.246;2023-06-10T13:28:50;57128.34;;;-147.53;100.00
60715;BME280;46564;53.096;8.246;2023-06-10T13:33:52;57128.34;;;-147.53;100.00
60715;BME280;46564;53.096;8.246;2023-06-10T13:38:53;57128.34;;;-147.53;100.00
60715;BME280;46564;53.096;8.246;2023-06-10T13:43:55;57128.34;;;-147.53;100.00
60715;BME280;46564;53.096;8.246;2023-06-10T13:48:56;57128.34;;;-147.53;100.00
60715;BME280;46564;53.096;8.246;2023-06-10T13:53:58;57128.34;;;-147.53;100.00
60715;BME280;46564;53.096;8.246;2023-06-10T13:59:00;57128.34;;;-147.53;100.00
60715;BME280;46564;53.096;8.246;2023-06-10T14:04:05;57128.34;;;-147.53;100.00
60715;BME280;46564;53.096;8.246;2023-06-10T14:09:08;57128.34;;;-147.53;100.00
60715;BME280;46564;53.096;8.246;2023-06-10T14:14:11;57128.34;;;-147.53;100.00
60715;BME280;46564;53.096;8.246;2023-06-10T14:19:12;57128.34;;;-147.53;100.00
60715;BME280;46564;53.096;8.246;2023-06-10T14:24:14;57128.34;;;-147.53;100.00
60715;BME280;46564;53.096;8.246;2023-06-10T14:29:16;57128.34;;;-147.53;100.00
60715;BME280;46564;53.096;8.246;2023-06-10T14:34:19;57128.34;;;-147.53;100.00
60715;BME280;46564;53.096;8.246;2023-06-10T14:39:22;57128.34;;;-147.53;100.00
60715;BME280;46564;53.096;8.246;2023-06-10T14:44:23;57128.34;;;-147.53;100.00
60715;BME280;46564;53.096;8.246;2023-06-10T14:49:25;57128.34;;;-147.53;100.00
60715;BME280;46564;53.096;8.246;2023-06-10T14:54:27;57128.34;;;-147.53;100.00
60715;BME280;46564;53.096;8.246;2023-06-10T14:59:29;57128.34;;;-147.53;100.00
60715;BME280;46564;53.096;8.246;2023-06-10T15:04:31;57128.34;;;-147.53;100.00
60715;BME280;46564;53.096;8.246;2023-06-10T15:09:36;57128.34;;;-147.53;100.00
60715;BME280;46564;53.096;8.246;2023-06-10T15:14:37;57128.34;;;-147.53;100.00
60715;BME280;46564;53.096;8.246;2023-06-10T15:19:39;57128.34;;;-147.53;100.00
60715;BME280;46564;53.096;8.246;2023-06-10T15:24:41;57128.34;;;-147.53;100.00
60715;BME280;46564;53.096;8.246;2023-06-10T15:29:43;57128.34;;;-147.53;100.00
60715;BME280;46564;53.096;8.246;2023-06-10T15:34:45;57128.34;;;-147.53;100.00
60715;BME280;46564;53.096;8.246;2023-06-10T15:39:49;57128.34;;;-147.53;100.00
60715;BME280;46564;53.096;8.246;2023-06-10T15:44:51;57128.34;;;-147.53;100.00
60715;BME280;46564;53.096;8.246;2023-06-10T15:49:54;57128.34;;;-147.53;100.00
60715;BME280;46564;53.096;8.246;2023-06-10T15:54:56;57128.34;;;-147.53;100.00
60715;BME280;46564;53.096;8.246;2023-06-10T15:59:58;57128.34;;;-147.53;100.00
60715;BME280;46564;53.096;8.246;2023-06-10T16:04:59;57128.34;;;-147.53;100.00
60715;BME280;46564;53.096;8.246;2023-06-10T16:10:02;57128.34;;;-147.53;100.00
60715;BME280;46564;53.096;8.246;2023-06-10T16:15:05;57128.34;;;-147.53;100.00
60715;BME280;46564;53.096;8.246;2023-06-10T16:20:07;57128.34;;;-147.53;100.00
60715;BME280;46564;53.096;8.246;2023-06-10T16:25:09;57128.34;;;-147.53;100.00
60715;BME280;46564;53.096;8.246;2023-06-10T16:30:12;57128.34;;;-147.53;100.00
60715;BME280;46564;53.096;8.246;2023-06-10T16:35:15;57128.34;;;-147.53;100.00
60715;BME280;46564;53.096;8.246;2023-06-10T16:40:18;57128.34;;;-147.53;100.00
60715;BME280;46564;53.096;8.246;2023-06-10T16:45:20;57128.34;;;-147.53;100.00
60715;BME280;46564;53.096;8.246;2023-06-10T16:50:22;57128.34;;;-147.53;100.00
60715;BME280;46564;53.096;8.246;2023-06-10T16:55:23;57128.34;;;-147.53;100.00
60715;BME280;46564;53.096;8.246;2023-06-10T17:00:25;57128.34;;;-147.53;100.00
60715;BME280;46564;53.096;8.246;2023-06-10T17:05:27;57128.34;;;-147.53;100.00
60715;BME280;46564;53.096;8.246;2023-06-10T17:10:29;57128.34;;;-147.53;100.00
60715;BME280;46564;53.096;8.246;2023-06-10T17:15:31;57128.34;;;-147.53;100.00
60715;BME280;46564;53.096;8.246;2023-06-10T17:20:33;57128.34;;;-147.53;100.00
60715;BME280;46564;53.096;8.246;2023-06-10T17:25:34;57128.34;;;-147.53;100.00
60715;BME280;46564;53.096;8.246;2023-06-10T17:30:38;57128.34;;;-147.53;100.00
60715;BME280;46564;53.096;8.246;2023-06-10T17:35:39;57128.34;;;-147.53;100.00
60715;BME280;46564;53.096;8.246;2023-06-10T17:40:42;57128.34;;;-147.53;100.00
60715;BME280;46564;53.096;8.246;2023-06-10T17:45:44;57128.34;;;-147.53;100.00
60715;BME280;46564;53.096;8.246;2023-06-10T17:50:46;57128.34;;;-147.53;100.00
60715;BME280;46564;53.096;8.246;2023-06-10T17:55:48;57128.34;;;-147.53;100.00
60715;BME280;46564;53.096;8.246;2023-06-10T18:00:50;57128.34;;;-147.53;100.00
60715;BME280;46564;53.096;8.246;2023-06-10T18:05:53;57128.34;;;-147.53;100.00
60715;BME280;46564;53.096;8.246;2023-06-10T18:10:55;57128.34;;;-147.53;100.00
60715;BME280;46564;53.096;8.246;2023-06-10T18:15:56;57128.34;;;-147.53;100.00
60715;BME280;46564;53.096;8.246;2023-06-10T18:21:02;57128.34;;;-147.53;100.00
60715;BME280;46564;53.096;8.246;2023-06-10T18:26:04;57128.34;;;-147.53;100.00
60715;BME280;46564;53.096;8.246;2023-06-10T18:31:05;57128.34;;;-147.53;100.00
60715;BME280;46564;53.096;8.246;2023-06-10T18:36:07;57128.34;;;-147.53;100.00
60715;BME280;46564;53.096;8.246;2023-06-10T18:44:36;101533.41;;;26.91;43.68
60715;BME280;46564;53.096;8.246;2023-06-10T18:49:38;101531.06;;;26.82;44.63
60715;BME280;46564;53.096;8.246;2023-06-10T18:54:40;101536.44;;;26.58;45.54
60715;BME280;46564;53.096;8.246;2023-06-10T18:59:41;101536.97;;;26.44;46.29
60715;BME280;46564;53.096;8.246;2023-06-10T19:04:44;101543.66;;;26.33;46.71
60715;BME280;46564;53.096;8.246;2023-06-10T19:09:46;101537.31;;;26.10;47.50
60715;BME280;46564;53.096;8.246;2023-06-10T19:14:48;101551.38;;;25.91;48.19
60715;BME280;46564;53.096;8.246;2023-06-10T19:19:51;101555.53;;;25.75;48.79
60715;BME280;46564;53.096;8.246;2023-06-10T19:25:02;101557.19;;;25.52;49.87
60715;BME280;46564;53.096;8.246;2023-06-10T19:30:06;101554.16;;;25.35;50.73
60715;BME280;46564;53.096;8.246;2023-06-10T19:35:08;101554.16;;;25.35;50.73
60715;BME280;46564;53.096;8.246;2023-06-10T19:40:12;101567.16;;;24.91;53.12
60715;BME280;46564;53.096;8.246;2023-06-10T19:45:14;101574.81;;;24.73;54.00
60715;BME280;46564;53.096;8.246;2023-06-10T19:50:16;101584.22;;;24.55;54.96
60715;BME280;46564;53.096;8.246;2023-06-10T19:55:18;101589.03;;;24.42;55.46
60715;BME280;46564;53.096;8.246;2023-06-10T20:00:20;101589.03;;;24.42;55.46
60715;BME280;46564;53.096;8.246;2023-06-10T20:05:22;101597.06;;;24.09;56.84
60715;BME280;46564;53.096;8.246;2023-06-10T20:10:24;101605.50;;;23.94;57.15
60715;BME280;46564;53.096;8.246;2023-06-10T20:15:26;101613.81;;;23.81;57.43
60715;BME280;46564;53.096;8.246;2023-06-10T20:20:28;101617.66;;;23.70;57.99
60715;BME280;46564;53.096;8.246;2023-06-10T20:25:30;101635.00;;;23.52;57.91
60715;BME280;46564;53.096;8.246;2023-06-10T20:30:31;101630.00;;;23.38;58.45
60715;BME280;46564;53.096;8.246;2023-06-10T20:35:34;101642.75;;;23.25;58.71
60715;BME280;46564;53.096;8.246;2023-06-10T20:40:36;101634.09;;;23.14;59.20
60715;BME280;46564;53.096;8.246;2023-06-10T20:45:38;101640.53;;;23.03;59.70
60715;BME280;46564;53.096;8.246;2023-06-10T20:50:40;101639.84;;;22.92;59.90
60715;BME280;46564;53.096;8.246;2023-06-10T20:55:42;101638.34;;;22.78;60.40
60715;BME280;46564;53.096;8.246;2023-06-10T21:00:43;101647.44;;;22.68;60.98
60715;BME280;46564;53.096;8.246;2023-06-10T21:05:46;101652.19;;;22.54;60.61
60715;BME280;46564;53.096;8.246;2023-06-10T21:10:48;101654.13;;;22.44;60.91
60715;BME280;46564;53.096;8.246;2023-06-10T21:15:51;101642.88;;;22.27;60.74
60715;BME280;46564;53.096;8.246;2023-06-10T21:20:53;101652.78;;;22.18;60.43
60715;BME280;46564;53.096;8.246;2023-06-10T21:25:54;101645.00;;;22.07;60.61
60715;BME280;46564;53.096;8.246;2023-06-10T21:30:56;101654.91;;;21.98;60.16
60715;BME280;46564;53.096;8.246;2023-06-10T21:35:58;101656.84;;;21.89;60.42
60715;BME280;46564;53.096;8.246;2023-06-10T21:40:59;101665.03;;;21.79;60.03
60715;BME280;46564;53.096;8.246;2023-06-10T21:46:01;101701.66;;;21.64;60.20
60715;BME280;46564;53.096;8.246;2023-06-10T21:51:04;101703.66;;;21.47;60.50
60715;BME280;46564;53.096;8.246;2023-06-10T21:56:05;101702.91;;;21.35;60.30
60715;BME280;46564;53.096;8.246;2023-06-10T22:01:07;101697.78;;;21.22;60.43
60715;BME280;46564;53.096;8.246;2023-06-10T22:06:10;101704.13;;;21.10;60.04
60715;BME280;46564;53.096;8.246;2023-06-10T22:11:11;101697.97;;;21.03;60.01
60715;BME280;46564;53.096;8.246;2023-06-10T22:16:13;101698.91;;;21.00;59.62
60715;BME280;46564;53.096;8.246;2023-06-10T22:21:15;101691.03;;;20.91;59.70
60715;BME280;46564;53.096;8.246;2023-06-10T22:26:16;101692.00;;;20.84;59.95
60715;BME280;46564;53.096;8.246;2023-06-10T22:31:18;101702.75;;;20.75;59.98
60715;BME280;46564;53.096;8.246;2023-06-10T22:36:20;101693.06;;;20.64;60.21
60715;BME280;46564;53.096;8.246;2023-06-10T22:41:22;101696.75;;;20.51;60.49
60715;BME280;46564;53.096;8.246;2023-06-10T22:46:23;101698.59;;;20.43;60.83
60715;BME280;46564;53.096;8.246;2023-06-10T22:51:25;101698.69;;;20.34;61.04
60715;BME280;46564;53.096;8.246;2023-06-10T22:56:27;101701.47;;;20.20;61.10
60715;BME280;46564;53.096;8.246;2023-06-10T23:01:29;101702.47;;;20.06;61.84
60715;BME280;46564;53.096;8.246;2023-06-10T23:06:32;101704.34;;;19.90;62.49
60715;BME280;46564;53.096;8.246;2023-06-10T23:11:34;101702.63;;;19.80;63.09
60715;BME280;46564;53.096;8.246;2023-06-10T23:16:36;101711.56;;;19.65;63.59
60715;BME280;46564;53.096;8.246;2023-06-10T23:21:47;101702.78;;;19.52;64.03
60715;BME280;46564;53.096;8.246;2023-06-10T23:26:56;101712.56;;;19.41;64.53
60715;BME280;46564;53.096;8.246;2023-06-10T23:31:58;101709.91;;;19.38;65.07
60715;BME280;46564;53.096;8.246;2023-06-10T23:37:03;101704.66;;;19.32;65.84
60715;BME280;46564;53.096;8.246;2023-06-10T23:42:06;101710.00;;;19.22;66.79
60715;BME280;46564;53.096;8.246;2023-06-10T23:47:08;101710.88;;;19.20;67.15
60715;BME280;46564;53.096;8.246;2023-06-10T23:52:10;101709.16;;;19.19;67.68
60715;BME280;46564;53.096;8.246;2023-06-10T23:57:14;101707.41;;;19.12;68.00
